Aérodrome :
LOGIN :

S'inscrire | Disclaimer

   EN    FR    IT 

 










Légende :    VFR   VFR Marginal   IFR   IFR Intensif   IFR Très Intensif
Visi : 
Plafond : 
>= 8 km
>= 3000ft
5 à 8 km
1000 à 3000 ft
1500m à 5 km
500 à 1000 ft
800 à 1500m
200 à 500 ft
< 800m
< 200 ft
Symboles :   Orages  Brouillard  Fortes neiges  Fortes précipitations  Vent > 20 kt
SIGMETs :   Divers  Orages  Givrage  Turbulence  Onde Orograph.  Cendres Volcan.







- Altitude de l'aérodrome : 194 ft


EBCV - Chièvres

DERNIER METAR :
  • 180425Z AUTO 19005KT 9999 BKN210/// 12/11 Q1023 BLU

METARs EXPIRÉS :
  • 180355Z AUTO 19005KT 9999 BKN210/// 12/11 Q1023 BLU
  • 180325Z AUTO 19005KT 9999 NCD 12/11 Q1022 BLU
  • 180255Z AUTO 19005KT 9999 NCD 12/10 Q1023 BLU
  • 180225Z AUTO 20004KT 9999 NCD 12/10 Q1023 BLU
  • 180155Z AUTO 20004KT 9999 NCD 12/10 Q1023 BLU

TAF TAF EBCV
Valide du 17 à 19h jusqu'au 18 à 07h UTC


171541Z 1719/1807 28006KT 9999 FEW035
TEMPO 1802/1807 5000 BR
BECMG 1804/1806 20005KT BY EBWM
Pas de NOTAMs connus pour ce terrain.



MET'MAP, la Météo Aéronautique d'un coup d'oeil ! - Copyright ORBIFLY Décembre 2007 - Disclaimer

ORBIFLY MET'MAP TEAM :

Programmation & Développement : Alexandra Zaïnal
Conception & Développement : Baudouin d'Aumeries
Co-Programmation & Développement : Marc-Olivier Méhu
Soutien technique & logistique : Manuel Goepfert

Contact : metmap@orbifly.com




SOURCES & CREDITS :

   NOAA